Time;durP1;ratioP1;P1;durP2;ratioP2;P2;SDS_P1;SDS_P2;PMS_P1;PMS_P2;Temp;Humidity;BMP_temperature;BMP_pressure;BME280_temperature;BME280_humidity;BME280_pressure;Samples;Min_cycle;Max_cycle;Signal;HPM_P1;HPM_P2
2022/05/21 00:00:05;;;;;;;19.30;13.60;;;;;;;;;;5027545;28;20262;-68
2022/05/21 00:02:32;;;;;;;22.67;15.27;;;;;;;;;;5008502;28;20188;-68
2022/05/21 00:05:00;;;;;;;22.77;16.50;;;;;;;;;;5027709;28;20631;-68
2022/05/21 00:07:29;;;;;;;22.40;15.17;;;;;;;;;;5027778;28;20200;-68
2022/05/21 00:09:56;;;;;;;19.27;13.63;;;;;;;;;;5027736;28;20191;-68
2022/05/21 00:12:23;;;;;;;18.63;13.90;;;;;;;;;;5027674;28;20306;-68
2022/05/21 00:14:52;;;;;;;21.13;14.33;;;;;;;;;;5027568;28;20306;-68
2022/05/21 00:17:19;;;;;;;32.13;21.10;;;;;;;;;;5022430;28;20200;-68
2022/05/21 00:19:45;;;;;;;22.30;15.20;;;;;;;;;;5010365;28;20187;-68
2022/05/21 00:22:12;;;;;;;21.10;13.77;;;;;;;;;;5010002;28;20199;-68
2022/05/21 00:24:39;;;;;;;24.77;16.43;;;;;;;;;;5027441;28;20191;-68
2022/05/21 00:27:07;;;;;;;34.93;17.13;;;;;;;;;;5027139;28;20870;-68
2022/05/21 00:29:34;;;;;;;38.10;15.73;;;;;;;;;;5027525;28;20718;-68
2022/05/21 00:32:18;;;;;;;28.93;15.07;;;;;;;;;;5027647;28;20168;-68
2022/05/21 00:34:45;;;;;;;20.73;14.20;;;;;;;;;;5027017;28;20524;-68
2022/05/21 00:37:28;;;;;;;22.77;15.33;;;;;;;;;;5027634;28;20184;-68
2022/05/21 00:39:55;;;;;;;20.47;14.63;;;;;;;;;;5027330;28;20220;-68
2022/05/21 00:42:22;;;;;;;21.67;14.13;;;;;;;;;;5033230;28;20187;-68
2022/05/21 00:44:49;;;;;;;23.10;15.70;;;;;;;;;;5051179;28;20274;-68
2022/05/21 00:47:17;;;;;;;26.70;16.37;;;;;;;;;;5051106;28;20976;-69
2022/05/21 00:49:44;;;;;;;37.47;23.00;;;;;;;;;;5040925;28;20562;-69
2022/05/21 00:52:12;;;;;;;29.17;19.23;;;;;;;;;;4977500;28;20184;-69
2022/05/21 00:54:40;;;;;;;24.73;14.97;;;;;;;;;;4993764;28;20192;-69
2022/05/21 00:57:21;;;;;;;20.17;13.83;;;;;;;;;;4993513;28;20207;-69
2022/05/21 00:59:49;;;;;;;18.17;13.27;;;;;;;;;;4993553;28;20188;-68
2022/05/21 01:02:19;;;;;;;17.73;13.50;;;;;;;;;;4993814;28;20189;-69
2022/05/21 01:04:47;;;;;;;19.97;13.73;;;;;;;;;;5009826;28;20270;-69
2022/05/21 01:07:15;;;;;;;21.20;14.37;;;;;;;;;;5013009;28;20190;-68
2022/05/21 01:09:52;;;;;;;19.30;13.63;;;;;;;;;;5030432;28;20199;-68
2022/05/21 01:12:20;;;;;;;19.37;14.30;;;;;;;;;;5012988;28;20191;-69
2022/05/21 01:14:49;;;;;;;18.40;14.23;;;;;;;;;;5012717;28;20254;-68
2022/05/21 01:17:17;;;;;;;20.73;14.27;;;;;;;;;;5013341;28;20350;-68
2022/05/21 01:20:00;;;;;;;25.47;15.33;;;;;;;;;;5029247;28;20192;-69
2022/05/21 01:22:28;;;;;;;22.50;15.57;;;;;;;;;;5030284;28;20199;-68
2022/05/21 01:24:54;;;;;;;23.47;15.40;;;;;;;;;;5019421;28;20270;-69
2022/05/21 01:27:22;;;;;;;24.17;15.67;;;;;;;;;;4977031;28;20188;-68
2022/05/21 01:29:49;;;;;;;20.53;14.90;;;;;;;;;;4993231;28;20192;-68
2022/05/21 01:32:16;;;;;;;21.10;13.53;;;;;;;;;;5010292;28;20199;-69
2022/05/21 01:34:43;;;;;;;19.43;14.37;;;;;;;;;;4992913;28;20279;-68
2022/05/21 01:37:10;;;;;;;20.10;14.03;;;;;;;;;;4992662;28;20208;-69
2022/05/21 01:39:38;;;;;;;18.80;14.17;;;;;;;;;;5010095;28;20221;-68
2022/05/21 01:42:05;;;;;;;25.53;15.37;;;;;;;;;;5012499;28;20192;-69
2022/05/21 01:44:37;;;;;;;21.73;16.07;;;;;;;;;;5049728;28;20183;-68
2022/05/21 01:47:07;;;;;;;22.20;14.57;;;;;;;;;;5049647;28;20183;-69
2022/05/21 01:49:35;;;;;;;20.80;14.30;;;;;;;;;;5050046;28;20195;-68
2022/05/21 01:52:02;;;;;;;18.63;14.00;;;;;;;;;;5049610;28;20183;-68
2022/05/21 01:54:28;;;;;;;20.87;15.17;;;;;;;;;;5049117;28;20179;-68
2022/05/21 01:57:13;;;;;;;25.60;15.53;;;;;;;;;;5048519;28;20214;-68
2022/05/21 01:59:39;;;;;;;23.03;14.63;;;;;;;;;;5017172;28;20195;-68
2022/05/21 02:02:25;;;;;;;23.53;14.77;;;;;;;;;;5029442;28;20178;-68
2022/05/21 02:04:52;;;;;;;20.87;13.57;;;;;;;;;;5029681;28;20242;-69
2022/05/21 02:07:36;;;;;;;22.30;14.83;;;;;;;;;;5029582;28;20635;-68
2022/05/21 02:10:03;;;;;;;19.40;13.50;;;;;;;;;;5011513;28;20191;-68
2022/05/21 02:12:30;;;;;;;21.23;14.77;;;;;;;;;;5011829;28;20229;-67
2022/05/21 02:14:57;;;;;;;19.80;14.23;;;;;;;;;;5027979;28;20718;-68
2022/05/21 02:17:24;;;;;;;18.90;13.87;;;;;;;;;;5029024;28;20198;-68
2022/05/21 02:19:51;;;;;;;25.07;15.17;;;;;;;;;;5011776;28;20203;-68
2022/05/21 02:22:17;;;;;;;24.97;15.27;;;;;;;;;;5029083;28;20203;-68
2022/05/21 02:24:44;;;;;;;20.57;14.53;;;;;;;;;;5028864;28;20271;-68
2022/05/21 02:27:11;;;;;;;22.17;14.90;;;;;;;;;;5011439;28;20188;-68
2022/05/21 02:29:38;;;;;;;20.80;15.10;;;;;;;;;;5028823;28;20183;-67
2022/05/21 02:32:05;;;;;;;21.33;15.57;;;;;;;;;;5010313;28;20214;-69
2022/05/21 02:34:32;;;;;;;21.53;14.77;;;;;;;;;;5011852;28;20172;-69
2022/05/21 02:39:44;;;;;;;30.93;18.67;;;;;;;;;;5028677;28;20274;-69
2022/05/21 02:44:57;;;;;;;23.23;16.10;;;;;;;;;;5048548;28;20187;-70
2022/05/21 02:47:25;;;;;;;25.30;17.30;;;;;;;;;;5048431;28;20186;-69
2022/05/21 02:49:51;;;;;;;21.40;16.23;;;;;;;;;;5038368;28;20558;-70
2022/05/21 02:52:18;;;;;;;20.90;15.33;;;;;;;;;;5011135;28;20198;-69
2022/05/21 02:54:45;;;;;;;19.47;15.20;;;;;;;;;;5028725;28;20573;-69
2022/05/21 02:57:11;;;;;;;20.77;15.73;;;;;;;;;;5028471;28;20259;-69
2022/05/21 02:59:39;;;;;;;20.70;14.47;;;;;;;;;;5028401;28;20608;-69
2022/05/21 03:02:06;;;;;;;19.57;15.07;;;;;;;;;;5027159;28;20192;-69
2022/05/21 03:04:33;;;;;;;23.60;16.00;;;;;;;;;;5011508;28;20215;-69
2022/05/21 03:06:59;;;;;;;20.87;15.57;;;;;;;;;;5025869;28;20200;-69
2022/05/21 03:12:11;;;;;;;20.10;15.57;;;;;;;;;;5013450;28;20187;-69
2022/05/21 03:14:38;;;;;;;19.50;14.33;;;;;;;;;;5028519;28;20250;-69
2022/05/21 03:17:05;;;;;;;23.90;16.97;;;;;;;;;;5027878;28;20215;-69
2022/05/21 03:19:32;;;;;;;22.03;16.60;;;;;;;;;;5028555;28;20187;-68
2022/05/21 03:21:59;;;;;;;23.57;16.43;;;;;;;;;;5028073;28;20199;-69
2022/05/21 03:24:26;;;;;;;22.97;16.00;;;;;;;;;;5027046;28;21060;-68
2022/05/21 03:26:53;;;;;;;21.83;15.77;;;;;;;;;;5010612;28;20552;-68
2022/05/21 03:29:20;;;;;;;22.10;16.23;;;;;;;;;;5028259;28;20183;-69
2022/05/21 03:32:04;;;;;;;22.13;15.50;;;;;;;;;;5027790;28;20171;-68
2022/05/21 03:34:31;;;;;;;22.60;16.10;;;;;;;;;;5028552;28;20646;-68
2022/05/21 03:36:59;;;;;;;22.67;16.30;;;;;;;;;;5027715;28;20215;-69
2022/05/21 03:39:25;;;;;;;22.43;16.93;;;;;;;;;;5019083;28;20237;-68
2022/05/21 03:41:52;;;;;;;21.43;16.97;;;;;;;;;;5008184;28;20227;-69
2022/05/21 03:44:20;;;;;;;22.73;17.43;;;;;;;;;;5047441;28;20187;-68
2022/05/21 03:46:47;;;;;;;23.00;18.20;;;;;;;;;;5030241;28;20201;-68
2022/05/21 03:49:14;;;;;;;27.30;18.07;;;;;;;;;;5048054;28;20514;-68
2022/05/21 03:51:41;;;;;;;24.90;17.97;;;;;;;;;;5047513;28;20244;-68
2022/05/21 03:54:26;;;;;;;27.47;18.77;;;;;;;;;;5035384;28;20639;-67
2022/05/21 03:56:54;;;;;;;23.10;18.23;;;;;;;;;;5008302;28;20218;-67
2022/05/21 03:59:21;;;;;;;26.87;17.80;;;;;;;;;;5009666;28;20188;-67
2022/05/21 04:01:48;;;;;;;22.13;16.90;;;;;;;;;;5028341;28;20280;-66
2022/05/21 04:04:15;;;;;;;23.47;16.67;;;;;;;;;;5024487;28;20195;-66
2022/05/21 04:06:42;;;;;;;23.00;17.87;;;;;;;;;;5021907;28;20261;-67
2022/05/21 04:09:10;;;;;;;21.53;16.70;;;;;;;;;;5047573;28;20187;-67
2022/05/21 04:11:36;;;;;;;25.83;18.13;;;;;;;;;;5047503;28;20214;-67
2022/05/21 04:14:03;;;;;;;24.23;18.33;;;;;;;;;;5045360;28;20182;-67
2022/05/21 04:16:30;;;;;;;25.07;17.40;;;;;;;;;;5029367;28;20209;-67
2022/05/21 04:18:57;;;;;;;26.83;18.37;;;;;;;;;;5044295;28;20190;-67
2022/05/21 04:21:26;;;;;;;26.30;17.90;;;;;;;;;;5031950;28;20224;-67
2022/05/21 04:23:53;;;;;;;25.43;18.57;;;;;;;;;;5011643;28;20192;-68
2022/05/21 04:26:19;;;;;;;24.50;17.57;;;;;;;;;;5030270;28;20183;-68
2022/05/21 04:28:48;;;;;;;25.70;18.67;;;;;;;;;;5029275;28;20191;-68
2022/05/21 04:31:14;;;;;;;25.83;17.97;;;;;;;;;;5029605;28;20850;-68
2022/05/21 04:33:41;;;;;;;27.73;18.57;;;;;;;;;;5030256;28;20187;-68
2022/05/21 04:36:20;;;;;;;27.27;19.13;;;;;;;;;;5030299;28;20210;-68
2022/05/21 04:39:04;;;;;;;21.47;16.93;;;;;;;;;;5029788;28;20235;-68
2022/05/21 04:41:32;;;;;;;23.57;17.80;;;;;;;;;;5029225;28;20659;-67
2022/05/21 04:43:59;;;;;;;20.83;16.67;;;;;;;;;;5032426;28;20199;-67
2022/05/21 04:46:26;;;;;;;24.10;18.13;;;;;;;;;;5029214;28;20958;-68
2022/05/21 04:48:53;;;;;;;24.70;18.33;;;;;;;;;;5029977;28;20204;-67
2022/05/21 04:51:30;;;;;;;25.13;18.50;;;;;;;;;;5029281;28;20187;-67
2022/05/21 04:53:57;;;;;;;19.90;17.20;;;;;;;;;;5011194;28;20275;-68
2022/05/21 04:56:24;;;;;;;24.00;18.07;;;;;;;;;;5027376;28;20621;-67
2022/05/21 04:59:10;;;;;;;22.43;17.67;;;;;;;;;;5024692;28;20199;-69
2022/05/21 05:01:37;;;;;;;22.20;17.07;;;;;;;;;;5026948;28;20241;-67
2022/05/21 05:04:05;;;;;;;20.90;17.07;;;;;;;;;;5028668;28;20563;-68
2022/05/21 05:06:32;;;;;;;22.53;17.13;;;;;;;;;;5014576;28;20195;-67
2022/05/21 05:08:58;;;;;;;23.43;17.50;;;;;;;;;;5029595;28;20691;-68
2022/05/21 05:11:26;;;;;;;24.03;19.47;;;;;;;;;;5028665;28;20192;-68
2022/05/21 05:13:53;;;;;;;25.47;19.97;;;;;;;;;;5029881;28;20217;-67
2022/05/21 05:16:20;;;;;;;23.37;19.20;;;;;;;;;;5028119;28;20210;-67
2022/05/21 05:18:46;;;;;;;24.70;19.43;;;;;;;;;;5029050;28;21156;-67
2022/05/21 05:21:13;;;;;;;26.77;19.87;;;;;;;;;;5029638;28;20195;-68
2022/05/21 05:23:40;;;;;;;21.40;17.93;;;;;;;;;;5027507;28;20203;-68
2022/05/21 05:26:06;;;;;;;22.57;19.70;;;;;;;;;;5029468;28;20198;-67
2022/05/21 05:28:33;;;;;;;27.50;19.90;;;;;;;;;;5028705;28;20252;-68
2022/05/21 05:31:00;;;;;;;23.00;18.23;;;;;;;;;;5008654;28;20594;-67
2022/05/21 05:33:29;;;;;;;25.27;19.60;;;;;;;;;;5023910;28;20198;-68
2022/05/21 05:35:56;;;;;;;24.37;19.23;;;;;;;;;;5012162;28;20333;-67
2022/05/21 05:38:23;;;;;;;25.07;19.33;;;;;;;;;;5027793;28;20241;-68
2022/05/21 05:40:50;;;;;;;24.37;19.23;;;;;;;;;;5029194;28;20271;-68
2022/05/21 05:43:18;;;;;;;26.00;18.73;;;;;;;;;;5029575;28;20183;-68
2022/05/21 05:45:44;;;;;;;21.77;17.63;;;;;;;;;;5007730;28;20274;-68
2022/05/21 05:48:13;;;;;;;25.83;18.10;;;;;;;;;;5025380;28;20262;-68
2022/05/21 05:50:40;;;;;;;22.33;17.83;;;;;;;;;;5028843;28;20190;-68
2022/05/21 05:53:07;;;;;;;25.23;19.60;;;;;;;;;;5028416;28;20196;-67
2022/05/21 05:55:34;;;;;;;26.57;20.10;;;;;;;;;;5027453;28;20222;-68
2022/05/21 05:59:48;;;;;;;26.17;18.77;;;;;;;;;;5028146;28;20230;-68
2022/05/21 06:00:47;;;;;;;24.43;19.27;;;;;;;;;;5027974;28;20677;-68
2022/05/21 06:03:14;;;;;;;24.20;18.90;;;;;;;;;;5028431;28;20208;-68
2022/05/21 06:05:41;;;;;;;26.20;19.57;;;;;;;;;;5027889;28;20543;-68
2022/05/21 06:08:08;;;;;;;25.37;19.23;;;;;;;;;;5027925;28;20195;-68
2022/05/21 06:10:37;;;;;;;25.33;19.70;;;;;;;;;;5026293;28;20188;-68
2022/05/21 06:13:05;;;;;;;26.00;19.53;;;;;;;;;;5004862;28;20319;-68
2022/05/21 06:15:33;;;;;;;23.40;19.43;;;;;;;;;;5010209;28;20196;-68
2022/05/21 06:18:14;;;;;;;26.23;20.33;;;;;;;;;;5029062;28;20215;-68
2022/05/21 06:20:44;;;;;;;24.67;19.17;;;;;;;;;;5025713;28;20210;-68
2022/05/21 06:23:12;;;;;;;25.70;19.80;;;;;;;;;;5028919;28;20195;-68
2022/05/21 06:25:39;;;;;;;24.10;19.13;;;;;;;;;;5028959;28;20180;-68
2022/05/21 06:28:06;;;;;;;25.20;18.87;;;;;;;;;;5028150;28;20291;-68
2022/05/21 06:30:33;;;;;;;24.30;19.10;;;;;;;;;;5028958;28;20199;-68
2022/05/21 06:33:17;;;;;;;27.70;19.67;;;;;;;;;;5027888;28;20199;-68
2022/05/21 06:35:45;;;;;;;24.53;19.07;;;;;;;;;;5026493;28;20814;-68
2022/05/21 06:38:12;;;;;;;20.37;17.23;;;;;;;;;;5037593;28;20309;-67
2022/05/21 06:40:40;;;;;;;20.63;16.93;;;;;;;;;;5028356;28;20219;-67
2022/05/21 06:43:07;;;;;;;19.20;16.27;;;;;;;;;;5027795;28;20302;-67
2022/05/21 06:45:34;;;;;;;20.97;17.40;;;;;;;;;;5000661;28;20179;-67
2022/05/21 06:48:02;;;;;;;22.73;17.17;;;;;;;;;;5026988;28;20194;-67
2022/05/21 06:50:29;;;;;;;22.23;17.87;;;;;;;;;;5021763;28;20282;-67
2022/05/21 06:52:56;;;;;;;22.70;17.70;;;;;;;;;;5026118;28;20227;-67
2022/05/21 06:55:24;;;;;;;23.13;17.97;;;;;;;;;;5028611;28;20203;-68
2022/05/21 06:57:51;;;;;;;23.50;18.60;;;;;;;;;;5027784;28;20250;-69
2022/05/21 07:00:19;;;;;;;21.17;16.93;;;;;;;;;;5013180;28;20191;-66
2022/05/21 07:02:47;;;;;;;20.53;16.70;;;;;;;;;;5026863;28;20263;-66
2022/05/21 07:08:00;;;;;;;18.67;14.00;;;;;;;;;;5020317;28;20309;-67
2022/05/21 07:10:29;;;;;;;17.00;14.23;;;;;;;;;;5048259;28;20194;-66
2022/05/21 07:12:56;;;;;;;12.53;10.07;;;;;;;;;;5036331;28;20206;-65
2022/05/21 07:15:24;;;;;;;10.20;8.87;;;;;;;;;;5026835;28;20203;-65
2022/05/21 07:17:51;;;;;;;8.87;7.60;;;;;;;;;;5025728;28;20281;-65
2022/05/21 07:20:21;;;;;;;6.43;5.30;;;;;;;;;;5016238;28;20221;-67
2022/05/21 07:22:48;;;;;;;2.50;2.30;;;;;;;;;;5031467;28;20274;-67
2022/05/21 07:25:17;;;;;;;2.57;2.23;;;;;;;;;;5028174;28;20191;-67
2022/05/21 07:28:01;;;;;;;3.30;1.60;;;;;;;;;;5026707;28;20258;-68
2022/05/21 07:30:29;;;;;;;2.10;1.90;;;;;;;;;;5027899;28;20574;-68
2022/05/21 07:32:56;;;;;;;2.77;2.20;;;;;;;;;;5010349;28;20677;-68
2022/05/21 07:35:24;;;;;;;3.00;2.70;;;;;;;;;;5027600;28;20970;-67
2022/05/21 07:37:51;;;;;;;2.87;2.60;;;;;;;;;;5009633;28;20222;-69
2022/05/21 07:40:36;;;;;;;4.03;3.60;;;;;;;;;;5027299;28;20693;-67
2022/05/21 07:43:10;;;;;;;5.37;3.93;;;;;;;;;;5027106;28;20642;-68
2022/05/21 07:45:39;;;;;;;4.57;3.90;;;;;;;;;;5026042;28;20187;-67
2022/05/21 07:48:06;;;;;;;5.63;4.33;;;;;;;;;;5026165;28;20200;-67
2022/05/21 07:50:33;;;;;;;6.53;4.80;;;;;;;;;;5027781;28;20211;-67
2022/05/21 07:52:59;;;;;;;6.13;4.87;;;;;;;;;;5012727;28;20918;-67
2022/05/21 07:55:26;;;;;;;8.10;4.80;;;;;;;;;;5032062;28;20185;-68
2022/05/21 07:57:54;;;;;;;7.53;5.47;;;;;;;;;;5029702;28;20229;-69
2022/05/21 08:00:21;;;;;;;6.77;5.60;;;;;;;;;;5029490;28;20610;-67
2022/05/21 08:02:49;;;;;;;5.50;4.00;;;;;;;;;;5029687;28;20670;-67
2022/05/21 08:05:16;;;;;;;6.60;3.97;;;;;;;;;;5030679;28;20188;-67
2022/05/21 08:07:49;;;;;;;5.07;3.90;;;;;;;;;;5030883;28;20967;-67
2022/05/21 08:10:17;;;;;;;4.13;3.30;;;;;;;;;;5029931;28;20187;-68
2022/05/21 08:12:43;;;;;;;3.60;3.27;;;;;;;;;;5021931;28;20256;-67
2022/05/21 08:15:10;;;;;;;3.83;2.50;;;;;;;;;;5026602;28;20221;-67
2022/05/21 08:17:37;;;;;;;3.30;2.40;;;;;;;;;;5028522;28;20594;-67
2022/05/21 08:20:05;;;;;;;2.87;2.50;;;;;;;;;;5010421;28;20250;-67
2022/05/21 08:28:03;;;;;;;2.77;1.90;;;;;;;;;;5011115;28;20214;-67
2022/05/21 08:30:30;;;;;;;1.77;1.60;;;;;;;;;;5030428;28;20214;-68
2022/05/21 08:33:00;;;;;;;1.40;1.20;;;;;;;;;;5031051;28;20262;-67
2022/05/21 08:35:27;;;;;;;2.10;1.00;;;;;;;;;;5030348;28;20199;-65
2022/05/21 08:37:56;;;;;;;1.53;0.80;;;;;;;;;;5030030;28;20222;-67
2022/05/21 08:40:23;;;;;;;0.50;0.47;;;;;;;;;;5018145;28;20234;-67
2022/05/21 08:42:54;;;;;;;0.60;0.60;;;;;;;;;;5009532;28;20200;-68
2022/05/21 08:45:22;;;;;;;1.67;0.60;;;;;;;;;;4992685;28;20199;-67
2022/05/21 08:48:07;;;;;;;1.43;0.50;;;;;;;;;;5018073;28;20530;-68
2022/05/21 08:50:34;;;;;;;0.63;0.40;;;;;;;;;;4997121;28;20534;-70
2022/05/21 08:53:03;;;;;;;1.00;0.50;;;;;;;;;;5012385;28;20216;-65
2022/05/21 08:55:42;;;;;;;0.40;0.30;;;;;;;;;;4976882;28;20199;-67
2022/05/21 08:58:12;;;;;;;1.30;0.50;;;;;;;;;;5004515;28;20270;-70
2022/05/21 09:00:44;;;;;;;0.37;0.20;;;;;;;;;;5002355;28;20195;-68
2022/05/21 09:03:13;;;;;;;0.50;0.20;;;;;;;;;;5020712;28;20224;-66
2022/05/21 09:05:41;;;;;;;0.83;0.43;;;;;;;;;;5022856;28;20191;-69
2022/05/21 09:08:08;;;;;;;0.50;0.30;;;;;;;;;;5003654;28;20193;-68
2022/05/21 09:10:56;;;;;;;0.73;0.20;;;;;;;;;;5002942;28;20171;-68
2022/05/21 09:13:32;;;;;;;0.20;0.10;;;;;;;;;;5015683;28;20262;-68
2022/05/21 09:18:44;;;;;;;0.37;0.37;;;;;;;;;;5006781;28;20308;-69
2022/05/21 09:21:16;;;;;;;0.47;0.47;;;;;;;;;;5020154;28;20619;-69
2022/05/21 09:23:52;;;;;;;0.20;0.20;;;;;;;;;;5004308;28;20199;-69
2022/05/21 09:26:50;;;;;;;0.50;0.30;;;;;;;;;;5012335;28;20314;-68
2022/05/21 09:29:21;;;;;;;0.47;0.40;;;;;;;;;;5020404;28;20714;-68
2022/05/21 09:31:53;;;;;;;0.70;0.30;;;;;;;;;;5023624;28;20187;-68
2022/05/21 09:34:20;;;;;;;0.40;0.40;;;;;;;;;;5013298;28;20200;-68
2022/05/21 09:37:05;;;;;;;0.40;0.30;;;;;;;;;;5021772;28;20267;-68
2022/05/21 09:39:31;;;;;;;0.40;0.30;;;;;;;;;;4994726;28;20224;-68
2022/05/21 09:42:08;;;;;;;0.50;0.40;;;;;;;;;;4996628;28;20275;-69
2022/05/21 09:47:23;;;;;;;2.13;0.60;;;;;;;;;;5018192;28;20303;-70
2022/05/21 09:50:05;;;;;;;0.67;0.43;;;;;;;;;;5017333;28;20195;-53
2022/05/21 09:52:32;;;;;;;0.63;0.30;;;;;;;;;;5012219;28;20928;-55
2022/05/21 09:54:59;;;;;;;2.00;0.60;;;;;;;;;;5022412;28;20216;-64
2022/05/21 09:57:29;;;;;;;0.23;0.23;;;;;;;;;;5018644;28;20229;-67
2022/05/21 10:00:15;;;;;;;0.20;0.20;;;;;;;;;;4997005;28;20183;-63
2022/05/21 10:02:46;;;;;;;0.50;0.20;;;;;;;;;;5007683;28;20306;-68
2022/05/21 10:05:14;;;;;;;0.40;0.30;;;;;;;;;;5017650;28;20191;-67
2022/05/21 10:11:03;;;;;;;1.20;0.50;;;;;;;;;;5008065;28;20568;-67
2022/05/21 10:13:47;;;;;;;3.20;0.80;;;;;;;;;;4991973;28;20284;-67
2022/05/21 10:16:33;;;;;;;1.60;0.73;;;;;;;;;;5007655;28;20221;-66
2022/05/21 10:19:23;;;;;;;1.03;0.60;;;;;;;;;;5016445;28;20632;-66
2022/05/21 10:21:56;;;;;;;0.83;0.70;;;;;;;;;;4999846;28;20190;-66
2022/05/21 10:24:37;;;;;;;0.73;0.50;;;;;;;;;;5012300;28;20270;-66
2022/05/21 10:27:27;;;;;;;3.07;0.60;;;;;;;;;;4987762;28;20206;-67
2022/05/21 10:29:57;;;;;;;0.50;0.43;;;;;;;;;;4979067;28;20224;-66
2022/05/21 10:32:24;;;;;;;0.40;0.40;;;;;;;;;;5007093;28;20192;-66
2022/05/21 10:34:57;;;;;;;0.50;0.30;;;;;;;;;;5014210;28;20527;-66
2022/05/21 10:37:24;;;;;;;0.50;0.50;;;;;;;;;;4998809;28;20234;-66
2022/05/21 10:40:07;;;;;;;1.23;0.60;;;;;;;;;;5019513;28;20235;-66
2022/05/21 10:42:50;;;;;;;1.47;0.50;;;;;;;;;;5009848;28;20193;-66
2022/05/21 10:45:36;;;;;;;1.67;1.00;;;;;;;;;;5008350;28;20238;-66
2022/05/21 10:48:12;;;;;;;1.63;0.80;;;;;;;;;;5012613;28;20188;-67
2022/05/21 10:50:58;;;;;;;0.80;0.70;;;;;;;;;;4994135;28;20237;-66
2022/05/21 10:53:30;;;;;;;1.10;0.77;;;;;;;;;;5007492;28;20191;-67
2022/05/21 10:56:16;;;;;;;1.17;0.70;;;;;;;;;;5005281;28;20195;-66
2022/05/21 10:58:53;;;;;;;1.17;0.70;;;;;;;;;;5012995;28;20317;-66
2022/05/21 11:01:23;;;;;;;1.20;0.50;;;;;;;;;;5000621;28;20717;-66
2022/05/21 11:04:06;;;;;;;1.07;0.60;;;;;;;;;;5021096;28;20187;-65
2022/05/21 11:06:34;;;;;;;1.10;0.60;;;;;;;;;;4994447;28;20218;-66
2022/05/21 11:09:24;;;;;;;2.03;0.60;;;;;;;;;;5011531;28;20193;-67
2022/05/21 11:12:10;;;;;;;1.07;0.60;;;;;;;;;;5010804;28;20584;-66
2022/05/21 11:14:42;;;;;;;1.20;0.53;;;;;;;;;;4992757;28;20579;-64
2022/05/21 11:17:27;;;;;;;0.80;0.60;;;;;;;;;;5002197;28;20199;-63
2022/05/21 11:20:00;;;;;;;2.53;0.50;;;;;;;;;;4998756;28;20541;-64
2022/05/21 11:22:34;;;;;;;0.93;0.63;;;;;;;;;;5023242;28;20191;-64
2022/05/21 11:25:01;;;;;;;1.20;0.50;;;;;;;;;;5013529;28;20188;-64
2022/05/21 11:27:29;;;;;;;2.13;0.73;;;;;;;;;;5015627;28;20598;-64
2022/05/21 11:30:07;;;;;;;1.20;0.87;;;;;;;;;;5005423;28;20197;-64
2022/05/21 11:38:18;;;;;;;1.33;0.90;;;;;;;;;;4990073;28;20618;-65
2022/05/21 11:46:55;;;;;;;0.60;0.50;;;;;;;;;;5000383;28;20202;-64
2022/05/21 11:49:43;;;;;;;0.93;0.67;;;;;;;;;;5000871;28;20203;-62
2022/05/21 11:52:31;;;;;;;1.00;0.60;;;;;;;;;;5013769;28;20743;-64
2022/05/21 11:54:58;;;;;;;0.50;0.40;;;;;;;;;;4994373;28;20199;-64
2022/05/21 11:57:34;;;;;;;0.77;0.50;;;;;;;;;;5016949;28;20299;-62
2022/05/21 12:00:22;;;;;;;0.50;0.50;;;;;;;;;;5024263;28;20175;-63
2022/05/21 12:02:55;;;;;;;1.67;0.60;;;;;;;;;;5013013;28;20551;-59
2022/05/21 12:05:47;;;;;;;2.60;1.10;;;;;;;;;;5008643;28;20188;-54
2022/05/21 12:08:14;;;;;;;1.90;0.73;;;;;;;;;;5005641;28;20202;-50
2022/05/21 12:10:55;;;;;;;2.73;1.00;;;;;;;;;;5010247;28;20191;-49
2022/05/21 12:13:42;;;;;;;1.30;0.80;;;;;;;;;;5009370;28;20913;-53
2022/05/21 12:16:21;;;;;;;3.73;0.80;;;;;;;;;;4968211;28;20777;-53
2022/05/21 12:18:48;;;;;;;1.37;0.90;;;;;;;;;;5015879;28;20223;-53
2022/05/21 12:21:36;;;;;;;1.07;0.97;;;;;;;;;;5007669;28;20858;-54
2022/05/21 12:24:03;;;;;;;1.40;0.70;;;;;;;;;;5022572;28;20253;-54
2022/05/21 12:26:30;;;;;;;2.50;0.83;;;;;;;;;;4995366;28;20200;-55
2022/05/21 12:29:17;;;;;;;1.37;0.90;;;;;;;;;;5013875;28;20629;-66
2022/05/21 12:31:48;;;;;;;3.63;1.10;;;;;;;;;;5014175;28;20206;-67
2022/05/21 12:34:23;;;;;;;1.80;1.10;;;;;;;;;;5007936;28;20563;-67
2022/05/21 12:37:09;;;;;;;2.80;1.00;;;;;;;;;;5021810;28;20182;-64
2022/05/21 12:39:44;;;;;;;2.73;1.00;;;;;;;;;;5022422;28;20265;-68
2022/05/21 12:42:34;;;;;;;1.73;1.00;;;;;;;;;;5009901;28;20268;-65
2022/05/21 12:45:01;;;;;;;1.80;0.77;;;;;;;;;;5009164;28;20568;-67
2022/05/21 12:47:29;;;;;;;1.63;0.93;;;;;;;;;;5020578;28;20551;-67
2022/05/21 12:49:57;;;;;;;1.87;0.90;;;;;;;;;;5016445;28;20206;-64
2022/05/21 12:52:42;;;;;;;2.33;1.10;;;;;;;;;;4998957;28;20171;-66
2022/05/21 12:55:21;;;;;;;1.60;1.10;;;;;;;;;;5004602;28;20195;-62
2022/05/21 12:58:09;;;;;;;3.20;1.90;;;;;;;;;;5021155;28;20685;-64
2022/05/21 13:00:36;;;;;;;3.37;1.90;;;;;;;;;;4983449;28;20253;-73
2022/05/21 13:03:07;;;;;;;2.53;1.30;;;;;;;;;;5004121;28;21020;-78
2022/05/21 13:05:36;;;;;;;3.50;1.10;;;;;;;;;;5015505;28;20675;-74
2022/05/21 13:08:05;;;;;;;3.27;2.37;;;;;;;;;;5025347;28;20188;-78
2022/05/21 13:10:34;;;;;;;3.07;1.30;;;;;;;;;;4998090;28;20588;-70
2022/05/21 13:13:14;;;;;;;3.37;1.73;;;;;;;;;;5024931;28;20200;-69
2022/05/21 13:16:00;;;;;;;4.37;1.40;;;;;;;;;;5026507;28;20357;-79
2022/05/21 13:18:39;;;;;;;3.50;1.37;;;;;;;;;;4977855;28;20228;-81
2022/05/21 13:21:13;;;;;;;2.83;1.30;;;;;;;;;;5011858;28;20288;-80
2022/05/21 13:24:03;;;;;;;12.70;5.20;;;;;;;;;;5023144;28;20191;-77
2022/05/21 13:26:31;;;;;;;2.87;1.17;;;;;;;;;;5014220;28;20182;-71
2022/05/21 13:29:13;;;;;;;3.20;1.87;;;;;;;;;;5012967;28;20198;-73
2022/05/21 13:31:39;;;;;;;3.63;1.60;;;;;;;;;;5002901;28;20195;-71
2022/05/21 13:34:06;;;;;;;2.40;1.33;;;;;;;;;;5024570;28;20191;-74
2022/05/21 13:36:34;;;;;;;5.00;1.60;;;;;;;;;;4996181;28;20602;-54
2022/05/21 13:39:01;;;;;;;3.37;1.60;;;;;;;;;;5008394;28;20306;-51
2022/05/21 13:41:37;;;;;;;4.77;1.90;;;;;;;;;;5001330;28;20280;-51
2022/05/21 13:44:08;;;;;;;3.17;1.77;;;;;;;;;;5025310;28;20198;-52
2022/05/21 13:46:34;;;;;;;4.97;1.63;;;;;;;;;;4992433;28;20184;-52
2022/05/21 13:49:02;;;;;;;2.33;1.30;;;;;;;;;;5015500;28;20183;-52
2022/05/21 13:51:31;;;;;;;5.23;1.47;;;;;;;;;;5018221;28;20204;-52
2022/05/21 13:54:00;;;;;;;8.43;2.00;;;;;;;;;;5022505;28;20609;-52
2022/05/21 13:56:33;;;;;;;3.77;1.10;;;;;;;;;;5010118;28;20199;-53
2022/05/21 13:59:11;;;;;;;3.10;1.23;;;;;;;;;;5004878;28;20223;-54
2022/05/21 14:01:38;;;;;;;2.47;1.27;;;;;;;;;;5007100;28;20213;-56
2022/05/21 14:04:39;;;;;;;2.53;1.63;;;;;;;;;;5007799;28;20176;-51
2022/05/21 14:07:21;;;;;;;4.10;1.80;;;;;;;;;;5017835;28;20200;-51
2022/05/21 14:10:06;;;;;;;3.57;1.60;;;;;;;;;;5009037;28;21141;-52
2022/05/21 14:12:35;;;;;;;3.97;1.70;;;;;;;;;;5026857;28;20967;-50
2022/05/21 14:15:07;;;;;;;3.73;1.73;;;;;;;;;;4988050;28;20196;-50
2022/05/21 14:17:34;;;;;;;3.70;1.70;;;;;;;;;;5021129;28;20180;-54
2022/05/21 14:20:12;;;;;;;5.37;2.17;;;;;;;;;;4995907;28;20212;-53
2022/05/21 14:22:40;;;;;;;6.77;1.90;;;;;;;;;;4997830;28;20284;-54
2022/05/21 14:25:24;;;;;;;2.77;1.40;;;;;;;;;;5013763;28;20210;-53
2022/05/21 14:28:09;;;;;;;2.57;1.70;;;;;;;;;;5022964;28;20197;-53
2022/05/21 14:30:38;;;;;;;3.10;1.83;;;;;;;;;;4996713;28;20226;-54
2022/05/21 14:33:10;;;;;;;3.83;2.10;;;;;;;;;;5019585;28;20225;-52
2022/05/21 14:35:37;;;;;;;2.53;1.80;;;;;;;;;;5019407;28;20212;-51
2022/05/21 14:38:04;;;;;;;3.23;1.70;;;;;;;;;;4994590;28;20231;-55
2022/05/21 14:40:43;;;;;;;6.13;2.20;;;;;;;;;;5019380;28;20227;-50
2022/05/21 14:43:12;;;;;;;3.77;2.10;;;;;;;;;;5017786;28;20607;-53
2022/05/21 14:45:39;;;;;;;4.83;1.63;;;;;;;;;;5010973;28;20238;-50
2022/05/21 14:48:06;;;;;;;3.17;1.70;;;;;;;;;;5027095;28;20566;-53
2022/05/21 14:53:22;;;;;;;4.93;2.10;;;;;;;;;;5027061;28;20192;-53
2022/05/21 14:55:49;;;;;;;2.73;1.60;;;;;;;;;;5009391;28;20195;-53
2022/05/21 14:58:16;;;;;;;6.10;2.30;;;;;;;;;;5025868;28;20284;-51
2022/05/21 15:00:43;;;;;;;3.43;2.10;;;;;;;;;;5027589;28;20670;-54
2022/05/21 15:03:12;;;;;;;4.47;2.20;;;;;;;;;;5027381;28;20191;-53
2022/05/21 15:05:40;;;;;;;5.77;2.23;;;;;;;;;;5028021;28;20184;-50
2022/05/21 15:08:07;;;;;;;3.73;2.00;;;;;;;;;;5009429;28;20248;-54
2022/05/21 15:10:33;;;;;;;4.30;2.30;;;;;;;;;;5027404;28;20727;-51
2022/05/21 15:13:01;;;;;;;3.87;2.07;;;;;;;;;;5023713;28;20608;-53
2022/05/21 15:15:28;;;;;;;3.13;1.87;;;;;;;;;;5027036;28;20206;-51
2022/05/21 15:17:56;;;;;;;3.10;2.20;;;;;;;;;;5025980;28;20243;-51
2022/05/21 15:20:23;;;;;;;4.93;3.10;;;;;;;;;;5025028;28;20314;-54
2022/05/21 15:22:50;;;;;;;4.23;2.60;;;;;;;;;;5017847;28;20226;-52
2022/05/21 15:25:17;;;;;;;4.07;2.87;;;;;;;;;;5027617;28;20191;-50
2022/05/21 15:27:45;;;;;;;3.50;2.50;;;;;;;;;;5027452;28;20844;-51
2022/05/21 15:30:12;;;;;;;4.33;2.90;;;;;;;;;;5024133;28;20677;-54
2022/05/21 15:32:39;;;;;;;4.60;2.60;;;;;;;;;;5027511;28;20187;-54